• Join FlightAware (Why Join?)
  • Login
  • US Flag 
06:16AM EDT


 

Airport Tracker/Info


-or-


 

Live Flight TrackerFlight Track Log ✈ DAL268 ✈ 18-Jun-2013 ✈ KJFK - LLBG / TLV

Flight Track Log - Related Links

Times and Time Zones

All times are in EDT time to prevent confusion due to time zone crossing. See the DAL268 flight status page for this flight to view local times or setup timezone preferences in your user account.

Time Position Orientation Groundspeed Altitude Reporting Facility
EDT Latitude Longitude Course Direction KTS MPH feet Rate Location/Type
11:53PM 40.6430 -73.7790 North  Level FlightAware
11:55PM 40.6430 -73.7780 90° East 2 2  Level FlightAware
11:57PM 40.6440 -73.7780 360° North 2 2  Level FlightAware
11:58PM 40.6430 -73.7780 180° South 2 2  Level FlightAware
12:01AM 40.5833 -73.3777 90° East  Level FlightAware Approximate
12:01AM 40.6420 -73.7780 90° East 2 2  Level FlightAware
12:03AM 40.6000 -73.4715 90° East  Level FlightAware Approximate
12:04AM 40.5833 -73.2926 90° East  Level FlightAware Approximate
12:05AM 40.5562 -73.1175 97° East  Level FlightAware Approximate
12:06AM 40.5667 -72.9422 90° East  Level FlightAware Approximate
12:06AM 40.6410 -73.7770 90° East 16 18  Level FlightAware
12:06AM 40.6400 -73.7780 217° Southwest 18 21 60 Level FlightAware
12:08AM 40.6390 -73.7790 217° Southwest 31 36 60 Level FlightAware
12:08AM 40.6380 -73.7790 180° South 32 37 60 Level FlightAware
12:08AM 40.6370 -73.7800 217° Southwest 34 39 60 Level FlightAware
12:09AM 40.6360 -73.7800 180° South 15 17 60 Level FlightAware
12:09AM 40.6350 -73.7810 217° Southwest 16 18 120 Level FlightAware
12:09AM 40.6330 -73.7820 201° Southwest 16 18 120 Level FlightAware
12:09AM 40.6320 -73.7830 217° Southwest 17 20 120 Level FlightAware
12:10AM 40.6300 -73.7850 217° Southwest 31 36 120 Level FlightAware
12:10AM 40.6290 -73.7850 180° South 31 36 180 Level FlightAware
12:11AM 40.6280 -73.7860 217° Southwest 25 29 180 Level FlightAware
12:11AM 40.6280 -73.7850 90° East 24 28 180 Level FlightAware
12:12AM 40.6280 -73.7840 90° East 240 Level FlightAware
12:13AM 40.6330 -73.7800 31° Northeast 98 113 300 Level FlightAware
12:13AM 40.6390 -73.7760 27° Northeast 135 155 900 Level FlightAware
12:13AM 40.6570 -73.7610 32° Northeast 167 192 600 1,440 Climbing FlightAware
12:14AM 40.6685 -73.7453 46° Northeast 176 203 1,200 1,200 Climbing FlightAware ADS-B
12:14AM 40.6700 -73.6950 88° East 225 259 1,900 1,080 Climbing FlightAware
12:15AM 40.6710 -73.6440 89° East 256 295 2,600 1,500 Climbing FlightAware
12:15AM 40.6720 -73.6080 88° East 274 315 3,300 2,100 Climbing FlightAware
12:16AM 40.6710 -73.5780 93° East 281 323 4,000 2,460 Climbing FlightAware
12:16AM 40.6620 -73.5260 103° East 294 338 5,300 2,700 Climbing FlightAware
12:16AM 40.6569 -73.5009 105° East 296 341 6,000 2,700 Climbing FlightAware ADS-B
12:17AM 40.6511 -73.4651 102° East 299 344 6,900 2,520 Climbing FlightAware ADS-B
12:17AM 40.6447 -73.4304 104° East 301 346 7,700 2,640 Climbing FlightAware ADS-B
12:17AM 40.6392 -73.4030 105° East 308 354 8,400 2,580 Climbing FlightAware ADS-B
12:18AM 40.6332 -73.3717 104° East 312 359 9,100 2,460 Climbing FlightAware ADS-B
12:18AM 40.6272 -73.3394 104° East 317 365 9,800 1,920 Climbing FlightAware ADS-B
12:18AM 40.6158 -73.2774 104° East 339 390 10,700 1,320 Climbing FlightAware ADS-B
12:19AM 40.6038 -73.2138 104° East 369 425 11,200 1,140 Climbing FlightAware ADS-B
12:20AM 40.5901 -73.1418 104° East 398 458 11,900 1,620 Climbing FlightAware ADS-B
12:20AM 40.5764 -73.0692 104° East 411 473 12,900 1,920 Climbing FlightAware ADS-B
12:20AM 40.5725 -73.0475 103° East 413 475 13,200 1,980 Climbing FlightAware ADS-B
12:21AM 40.5850 -72.9270 82° East 428 493 14,900 2,040 Climbing FlightAware
12:22AM 40.6260 -72.8060 66° East 440 506 16,600 1,980 Climbing FlightAware
12:22AM 40.6582 -72.7446 55° Northeast 447 514 17,400 1,800 Climbing FlightAware ADS-B
12:23AM 40.6940 -72.6769 55° Northeast 456 525 18,300 1,620 Climbing FlightAware ADS-B
12:23AM 40.7310 -72.6071 55° Northeast 467 537 19,100 1,560 Climbing FlightAware ADS-B
12:24AM 40.7732 -72.5276 55° Northeast 476 548 20,000 1,620 Climbing FlightAware ADS-B
12:24AM 40.8150 -72.4490 55° Northeast 484 557 20,900 1,620 Climbing FlightAware
12:25AM 40.8346 -72.4117 55° Northeast 484 557 21,300 1,500 Climbing FlightAware ADS-B
12:25AM 40.8827 -72.3204 55° Northeast 484 557 22,200 1,380 Climbing FlightAware ADS-B
12:26AM 40.9233 -72.2430 55° Northeast 507 583 22,900 1,320 Climbing FlightAware ADS-B
12:26AM 40.9661 -72.1609 55° Northeast 514 592 23,600 1,320 Climbing FlightAware ADS-B
12:27AM 41.0075 -72.0817 55° Northeast 521 600 24,300 840 Climbing FlightAware ADS-B
12:28AM 41.0620 -71.9770 55° Northeast 525 604 24,700 1,320 Climbing FlightAware
12:28AM 41.0360 -72.0280 236° Southwest 25,600 2,040 Climbing FlightAware
12:28AM 41.1330 -71.8390 56° Northeast 535 616 26,400 1,260 Climbing FlightAware
12:29AM 41.1870 -71.7360 55° Northeast 542 624 27,100 1,080 Climbing FlightAware
12:30AM 41.2600 -71.5960 55° Northeast 551 634 28,000 840 Climbing FlightAware
12:31AM 41.3350 -71.4500 56° Northeast 555 639 28,900 1,140 Climbing FlightAware
12:32AM 41.4280 -71.2680 56° Northeast 555 639 30,300 1,380 Climbing FlightAware
12:32AM 41.4940 -71.1370 56° Northeast 559 643 31,000 960 Climbing FlightAware
12:33AM 41.5450 -71.0360 56° Northeast 562 647 31,600 900 Climbing FlightAware
12:34AM 41.6170 -70.8930 56° Northeast 565 650 32,300 840 Climbing FlightAware
12:35AM 41.6750 -70.7770 56° Northeast 573 659 32,900 480 Climbing FlightAware
12:35AM 41.7430 -70.6410 56° Northeast 575 662 33,000 60 Climbing FlightAware
12:36AM 41.7800 -70.5680 56° Northeast 576 663 33,000  Level FlightAware
12:38AM 41.9460 -70.2330 56° Northeast 577 664 33,000  Level FlightAware
12:39AM 42.0220 -70.0770 57° Northeast 572 658 33,000  Level FlightAware
12:39AM 42.0950 -69.9270 57° Northeast 574 661 33,000  Level FlightAware
12:40AM 42.1520 -69.8090 57° Northeast 574 661 33,000  Level FlightAware
12:41AM 42.2580 -69.5920 57° Northeast 574 661 33,000  Level FlightAware
12:42AM 42.3370 -69.4270 57° Northeast 574 661 33,000  Level FlightAware
12:43AM 42.4030 -69.2890 57° Northeast 575 662 33,000  Level FlightAware
12:43AM 42.4620 -69.1650 57° Northeast 577 664 33,000  Level FlightAware
12:44AM 42.5240 -69.0340 57° Northeast 579 666 33,000  Level FlightAware
12:45AM 42.5740 -68.9290 57° Northeast 579 666 33,000  Level FlightAware
12:46AM 42.6060 -68.8580 59° Northeast 579 666 33,000  Level FlightAware
12:47AM 42.6790 -68.7000 58° Northeast 579 666 33,000  Level FlightAware
12:47AM 42.7360 -68.5740 58° Northeast 579 666 33,000  Level FlightAware
12:48AM 42.7800 -68.4790 58° Northeast 579 666 33,000  Level FlightAware
12:49AM 42.8380 -68.3530 58° Northeast 579 666 33,000  Level FlightAware
12:51AM 43.0500 -67.9060 57° Northeast 582 670 33,000  Level FlightAware
12:51AM 43.1330 -67.7260 58° Northeast 581 669 33,000  Level FlightAware
12:52AM 43.1990 -67.5800 58° Northeast 581 669 33,000  Level FlightAware
12:53AM 43.2550 -67.4560 58° Northeast 580 667 33,000  Level FlightAware
12:53AM 43.3170 -67.3180 58° Northeast 579 666 33,000  Level FlightAware
12:54AM 43.3740 -67.1900 58° Northeast 574 661 33,000  Level FlightAware
12:55AM 43.4510 -67.0190 58° Northeast 574 661 33,000  Level FlightAware
12:56AM 43.5130 -66.8780 59° Northeast 573 659 33,000  Level FlightAware
12:56AM 43.5620 -66.7650 59° Northeast 574 661 33,000  Level FlightAware
12:57AM 43.6310 -66.6080 59° Northeast 575 662 33,000  Level FlightAware
12:58AM 43.6790 -66.4970 59° Northeast 575 662 33,000  Level FlightAware
12:59AM 43.7480 -66.3370 59° Northeast 578 665 33,000  Level FlightAware
12:59AM 43.7960 -66.2250 59° Northeast 579 666 33,000  Level FlightAware
01:00AM 43.8600 -66.0780 59° Northeast 578 665 33,000  Level FlightAware
01:01AM 43.9140 -65.9510 59° Northeast 577 664 33,000  Level FlightAware
01:01AM 43.9760 -65.8050 59° Northeast 578 665 33,000  Level FlightAware
01:02AM 44.0310 -65.6760 59° Northeast 578 665 33,000  Level FlightAware
01:03AM 44.0930 -65.5290 60° Northeast 581 669 33,000  Level FlightAware
01:03AM 44.1470 -65.4020 59° Northeast 581 669 33,000  Level FlightAware
01:04AM 44.2010 -65.2720 60° Northeast 581 669 33,000  Level FlightAware
01:05AM 44.2550 -65.1440 59° Northeast 581 669 33,000  Level FlightAware
01:06AM 44.3160 -64.9990 60° Northeast 582 670 33,000  Level FlightAware
01:06AM 44.3770 -64.8510 60° Northeast 582 670 33,000  Level FlightAware
01:07AM 44.4250 -64.7350 60° Northeast 583 671 33,000  Level FlightAware
01:08AM 44.4910 -64.5740 60° Northeast 584 672 33,000  Level FlightAware
01:08AM 44.5440 -64.4430 60° Northeast 586 674 33,000  Level FlightAware
01:09AM 44.6000 -64.3050 60° Northeast 588 677 33,000  Level FlightAware
01:10AM 44.6730 -64.1230 61° Northeast 591 680 33,000  Level FlightAware
01:11AM 44.7700 -63.8810 60° Northeast 590 679 33,000  Level FlightAware
01:12AM 44.8230 -63.7490 60° Northeast 590 679 33,000  Level FlightAware
01:12AM 44.8710 -63.6270 61° Northeast 589 678 33,000  Level FlightAware
01:13AM 44.9340 -63.4670 61° Northeast 589 678 33,000  Level FlightAware
01:14AM 44.9850 -63.3380 61° Northeast 589 678 33,000  Level FlightAware
01:15AM 45.0360 -63.2090 61° Northeast 589 678 33,000  Level FlightAware
01:15AM 45.0750 -63.1080 61° Northeast 589 678 33,000  Level FlightAware
01:16AM 45.1310 -62.9650 61° Northeast 589 678 33,000  Level FlightAware
01:17AM 45.1720 -62.8590 61° Northeast 589 678 33,000  Level FlightAware
01:18AM 45.2400 -62.6860 61° Northeast 589 678 33,000  Level FlightAware
01:19AM 45.2800 -62.5820 61° Northeast 589 678 33,000  Level FlightAware
01:19AM 45.3340 -62.4440 61° Northeast 589 678 33,000  Level FlightAware
01:21AM 45.4300 -62.1960 61° Northeast 589 678 33,000  Level FlightAware
01:21AM 45.4710 -62.0920 61° Northeast 589 678 33,000  Level FlightAware
01:22AM 45.5220 -61.9590 61° Northeast 589 678 33,000  Level FlightAware
01:23AM 45.5630 -61.8550 61° Northeast 589 678 33,000  Level FlightAware
01:24AM 45.6170 -61.7160 61° Northeast 589 678 33,000  Level FlightAware
01:24AM 45.7920 -61.1880 64° Northeast 596 686 33,000  Level FlightAware
01:25AM 45.8380 -61.0610 62° Northeast 597 687 33,000  Level FlightAware
01:26AM 45.9310 -60.8000 63° Northeast 598 688 33,000  Level FlightAware
01:27AM 45.9850 -60.6450 63° Northeast 600 690 33,000  Level FlightAware
01:27AM 46.0380 -60.4950 63° Northeast 601 692 33,000  Level FlightAware
01:28AM 46.0890 -60.3490 63° Northeast 601 692 33,000  Level FlightAware
01:29AM 46.1440 -60.1940 63° Northeast 600 690 33,000  Level FlightAware
01:29AM 46.1880 -60.0650 64° Northeast 600 690 33,000  Level FlightAware
01:31AM 46.2810 -59.7940 64° Northeast 601 692 33,000  Level FlightAware
01:31AM 46.3320 -59.6470 63° Northeast 602 693 33,000  Level FlightAware
01:32AM 46.3790 -59.5080 64° Northeast 603 694 33,000  Level FlightAware
01:33AM 46.4350 -59.3410 64° Northeast 604 695 33,000  Level FlightAware
01:34AM 46.4860 -59.1890 64° Northeast 604 695 33,000  Level FlightAware
01:34AM 46.5380 -59.0310 64° Northeast 603 694 33,000  Level FlightAware
01:37AM 46.6890 -58.5700 64° Northeast 600 690 33,000  Level FlightAware
01:37AM 46.7550 -58.3660 65° Northeast 599 689 33,000  Level FlightAware
01:38AM 46.8030 -58.2160 65° Northeast 600 690 33,000  Level FlightAware
01:39AM 46.8540 -58.0570 65° Northeast 602 693 33,000  Level FlightAware
01:39AM 46.8900 -57.9440 65° Northeast 602 693 33,000  Level FlightAware
01:41AM 46.9830 -57.6500 65° Northeast 603 694 33,000  Level FlightAware
01:41AM 47.0440 -57.4520 66° East 605 696 33,000  Level FlightAware
01:42AM 47.0980 -57.2800 65° Northeast 606 697 33,000  Level FlightAware
01:43AM 47.1440 -57.1260 66° East 605 696 33,000  Level FlightAware
01:44AM 47.1970 -56.9510 66° East 604 695 33,000  Level FlightAware
01:44AM 47.2410 -56.8060 66° East 604 695 33,000  Level FlightAware
01:45AM 47.2830 -56.6630 67° East 604 695 33,000  Level FlightAware
01:46AM 47.3340 -56.4920 66° East 605 696 33,000  Level FlightAware
01:46AM 47.3770 -56.3460 66° East 606 697 33,000  Level FlightAware
01:47AM 47.4270 -56.1760 66° East 608 700 33,000  Level FlightAware
01:48AM 47.4700 -56.0270 67° East 610 702 33,000  Level FlightAware
01:49AM 47.5210 -55.8480 67° East 611 703 33,000  Level FlightAware
01:50AM 47.5870 -55.6190 67° East 612 704 33,000  Level FlightAware
01:50AM 47.6280 -55.4780 67° East 612 704 33,000  Level FlightAware
01:51AM 47.6920 -55.2510 67° East 611 703 33,000 540 Level FlightAware
01:52AM 47.7360 -55.0930 67° East 609 701 33,800 720 Climbing FlightAware
01:52AM 47.7810 -54.9320 67° East 611 703 34,000 120 Climbing FlightAware
01:53AM 47.8280 -54.7590 68° East 610 702 34,000  Level FlightAware
01:54AM 47.8710 -54.6030 68° East 608 700 34,000  Level FlightAware
01:55AM 47.9130 -54.4480 68° East 609 701 34,000  Level FlightAware
01:56AM 48.0200 -54.0480 68° East 610 702 34,000  Level FlightAware
01:57AM 48.0620 -53.8910 68° East 612 704 34,000  Level FlightAware
01:58AM 48.1080 -53.7150 69° East 611 703 34,000  Level FlightAware
01:58AM 48.1480 -53.5610 69° East 611 703 34,000  Level FlightAware
01:59AM 48.1940 -53.3850 69° East 610 702 34,000  Level FlightAware
02:00AM 48.2310 -53.2430 69° East 610 702 34,000  Level FlightAware
02:01AM 48.3150 -52.9120 69° East 608 700 34,000  Level FlightAware
02:02AM 48.3770 -52.6700 69° East 610 702 34,000  Level FlightAware
02:03AM 48.4190 -52.5020 69° East 612 704 34,000  Level FlightAware
02:04AM 48.4850 -52.2350 69° East 613 705 34,000  Level FlightAware
02:05AM 48.5300 -52.0530 69° East 615 708 34,000  Level FlightAware
02:06AM 48.6140 -51.7060 70° East 614 707 34,000  Level FlightAware
02:07AM 48.6510 -51.5480 70° East 613 705 34,000  Level FlightAware
02:07AM 48.6840 -51.4110 70° East 612 704 34,000  Level FlightAware
02:08AM 48.7280 -51.2270 70° East 610 702 34,000  Level FlightAware
02:09AM 48.7810 -51.0000 70° East 607 699 34,000  Level FlightAware
02:10AM 48.8210 -50.8260 71° East 602 693 34,000  Level FlightAware
02:12AM 48.9170 -50.4200 70° East 601 692 34,000  Level FlightAware
02:12AM 48.9560 -50.2580 70° East 601 692 34,000  Level FlightAware
02:13AM 48.9850 -50.1360 70° East 601 692 34,000  Level FlightAware
02:14AM 49.0240 -49.9730 70° East 601 692 34,000  Level FlightAware
02:14AM 49.0530 -49.8520 70° East 601 692 34,000  Level FlightAware
02:16AM 49.1410 -49.4820 70° East 601 692 34,000  Level FlightAware
02:17AM 49.1710 -49.3560 70° East 601 692 34,000  Level FlightAware
02:18AM 49.2090 -49.1930 70° East 601 692 34,000  Level FlightAware
02:18AM 49.2380 -49.0700 70° East 601 692 34,000  Level FlightAware
02:19AM 49.2770 -48.9070 70° East 601 692 34,000  Level FlightAware
02:20AM 49.0000 -50.0000 77° East 562 647 34,000  Level ETMS Enhanced Traffic Management System
02:20AM 49.3100 -48.7710 70° East 601 692 34,000  Level FlightAware
02:20AM 49.2167 -48.2167 77° East 590 679 34,000  Level Gander Center
02:21AM 49.2500 -48.0000 77° East 590 679 34,000  Level Gander Center
02:22AM 49.2667 -47.8667 79° East 580 667 34,000  Level Gander Center
02:23AM 49.3000 -47.6000 79° East 580 667 34,000  Level Gander Center
02:24AM 49.3167 -47.3833 83° East 570 656 34,000  Level Gander Center
02:26AM 49.3620 -47.0184 79° East  Level FlightAware Approximate
02:33AM 49.5417 -45.4631 79° East  Level FlightAware Approximate
02:34AM 49.5656 -45.2400 81° East  Level FlightAware Approximate
02:35AM 49.5891 -45.0167 81° East  Level FlightAware Approximate
02:36AM 49.6122 -44.7931 81° East  Level FlightAware Approximate
02:37AM 49.6349 -44.5694 81° East  Level FlightAware Approximate
02:38AM 49.6571 -44.3454 81° East  Level FlightAware Approximate
02:39AM 49.6789 -44.1213 81° East  Level FlightAware Approximate
02:40AM 49.7003 -43.8969 82° East  Level FlightAware Approximate
02:41AM 49.7212 -43.6724 82° East  Level FlightAware Approximate
02:42AM 49.7417 -43.4477 82° East  Level FlightAware Approximate
02:43AM 49.7618 -43.2227 82° East  Level FlightAware Approximate
02:44AM 49.7814 -42.9976 82° East  Level FlightAware Approximate
02:45AM 49.8006 -42.7723 82° East  Level FlightAware Approximate
02:46AM 49.8193 -42.5468 83° East  Level FlightAware Approximate
02:47AM 49.8377 -42.3212 83° East  Level FlightAware Approximate
02:48AM 49.8555 -42.0954 83° East  Level FlightAware Approximate
02:49AM 49.8730 -41.8694 83° East  Level FlightAware Approximate
02:50AM 49.8900 -41.6433 83° East  Level FlightAware Approximate
02:51AM 49.9065 -41.4170 83° East  Level FlightAware Approximate
02:52AM 49.9227 -41.1906 84° East  Level FlightAware Approximate
02:53AM 49.9383 -40.9640 84° East  Level FlightAware Approximate
02:54AM 49.9536 -40.7372 84° East  Level FlightAware Approximate
02:55AM 49.9684 -40.5103 84° East  Level FlightAware Approximate
02:56AM 49.9827 -40.2833 84° East  Level FlightAware Approximate
02:57AM 49.9966 -40.0562 84° East  Level FlightAware Approximate
02:58AM 50.0235 -39.8319 78° East  Level FlightAware Approximate
02:58AM 50.0000 -40.0000 77° East 551 634 34,000  Level ETMS Enhanced Traffic Management System
02:59AM 50.0544 -39.6086 78° East  Level FlightAware Approximate
03:00AM 50.0849 -39.3851 78° East  Level FlightAware Approximate
03:01AM 50.1149 -39.1612 78° East  Level FlightAware Approximate
03:02AM 50.1445 -38.9370 78° East  Level FlightAware Approximate
03:03AM 50.1739 -38.7127 78° East  Level FlightAware Approximate
03:04AM 50.2859 -37.8955 79° East 551 634 34,000  Level FlightAware Transoceanic
03:05AM 50.3153 -37.6601 79° East 551 634 34,000  Level FlightAware Transoceanic
03:06AM 50.3442 -37.4245 79° East 551 634 34,000  Level FlightAware Transoceanic
03:07AM 50.3727 -37.1885 79° East 551 634 34,000  Level FlightAware Transoceanic
03:08AM 50.4007 -36.9523 80° East 551 634 34,000  Level FlightAware Transoceanic
03:09AM 50.4282 -36.7159 80° East 551 634 34,000  Level FlightAware Transoceanic
03:10AM 50.4552 -36.4791 80° East 551 634 34,000  Level FlightAware Transoceanic
03:11AM 50.4817 -36.2421 80° East 551 634 34,000  Level FlightAware Transoceanic
03:12AM 50.5078 -36.0048 80° East 551 634 34,000  Level FlightAware Transoceanic
03:13AM 50.5334 -35.7672 80° East 551 634 34,000  Level FlightAware Transoceanic
03:14AM 50.5584 -35.5294 81° East 551 634 34,000  Level FlightAware Transoceanic
03:15AM 50.5830 -35.2914 81° East 551 634 34,000  Level FlightAware Transoceanic
03:16AM 50.6072 -35.0531 81° East 551 634 34,000  Level FlightAware Transoceanic
03:17AM 50.6308 -34.8145 81° East 551 634 34,000  Level FlightAware Transoceanic
03:18AM 50.6539 -34.5757 81° East 551 634 34,000  Level FlightAware Transoceanic
03:19AM 50.6766 -34.3367 82° East 551 634 34,000  Level FlightAware Transoceanic
03:20AM 50.6988 -34.0975 82° East 551 634 34,000  Level FlightAware Transoceanic
03:21AM 50.7204 -33.8580 82° East 551 634 34,000  Level FlightAware Transoceanic
03:22AM 50.7416 -33.6183 82° East 551 634 34,000  Level FlightAware Transoceanic
03:23AM 50.7623 -33.3784 82° East 551 634 34,000  Level FlightAware Transoceanic
03:24AM 50.7825 -33.1383 83° East 551 634 34,000  Level FlightAware Transoceanic
03:25AM 50.8022 -32.8980 83° East 551 634 34,000  Level FlightAware Transoceanic
03:26AM 50.8214 -32.6575 83° East 551 634 34,000  Level FlightAware Transoceanic
03:27AM 50.8402 -32.4168 83° East 551 634 34,000  Level FlightAware Transoceanic
03:28AM 50.8584 -32.1759 83° East 551 634 34,000  Level FlightAware Transoceanic
03:29AM 50.8761 -31.9348 83° East 551 634 34,000  Level FlightAware Transoceanic
03:30AM 50.8933 -31.6935 84° East 551 634 34,000  Level FlightAware Transoceanic
03:31AM 50.9101 -31.4521 84° East 551 634 34,000  Level FlightAware Transoceanic
03:32AM 50.9263 -31.2105 84° East 551 634 34,000  Level FlightAware Transoceanic
03:33AM 50.9421 -30.9687 84° East 551 634 34,000  Level FlightAware Transoceanic
03:34AM 50.9573 -30.7267 84° East 551 634 34,000  Level FlightAware Transoceanic
03:35AM 50.9720 -30.4846 85° East 551 634 34,000  Level FlightAware Transoceanic
03:36AM 50.9863 -30.2424 85° East 551 634 34,000  Level FlightAware Transoceanic
03:37AM 50.9994 -30.0103 85° East  Level FlightAware Approximate
03:38AM 51.0121 -29.7780 85° East  Level FlightAware Approximate
03:39AM 51.0066 -29.7877 87° East  Level FlightAware Approximate
03:40AM 51.0134 -29.5548 87° East  Level FlightAware Approximate
03:41AM 51.0197 -29.3218 87° East  Level FlightAware Approximate
03:42AM 51.0256 -29.0888 88° East  Level FlightAware Approximate
03:43AM 51.0310 -28.8557 88° East  Level FlightAware Approximate
03:43AM 51.0000 -30.0000 86° East 565 650 34,000  Level ETMS Enhanced Traffic Management System
03:44AM 51.0375 -28.6227 87° East  Level FlightAware Approximate
03:45AM 51.0447 -28.3959 87° East  Level FlightAware Approximate
03:46AM 51.0514 -28.1692 87° East  Level FlightAware Approximate
03:47AM 51.0577 -27.9423 87° East  Level FlightAware Approximate
03:48AM 51.0635 -27.7154 88° East  Level FlightAware Approximate
03:49AM 51.0689 -27.4884 88° East  Level FlightAware Approximate
03:50AM 51.0937 -26.7524 89° East 565 650 34,000  Level FlightAware Transoceanic
03:51AM 51.0972 -26.5021 89° East 565 650 34,000  Level FlightAware Transoceanic
03:52AM 51.1001 -26.2518 89° East 565 650 34,000  Level FlightAware Transoceanic
03:53AM 51.1025 -26.0015 89° East 565 650 34,000  Level FlightAware Transoceanic
03:54AM 51.1044 -25.7511 89° East 565 650 34,000  Level FlightAware Transoceanic
03:55AM 51.1057 -25.5008 90° East 565 650 34,000  Level FlightAware Transoceanic
03:56AM 51.1065 -25.2504 90° East 565 650 34,000  Level FlightAware Transoceanic
03:57AM 51.1068 -25.0000 90° East 565 650 34,000  Level FlightAware Transoceanic
03:58AM 51.1065 -24.7496 90° East 565 650 34,000  Level FlightAware Transoceanic
03:59AM 51.1057 -24.4992 90° East 565 650 34,000  Level FlightAware Transoceanic
04:00AM 51.1044 -24.2489 91° East 565 650 34,000  Level FlightAware Transoceanic
04:01AM 51.1025 -23.9985 91° East 565 650 34,000  Level FlightAware Transoceanic
04:02AM 51.1001 -23.7482 91° East 565 650 34,000  Level FlightAware Transoceanic
04:03AM 51.0972 -23.4979 91° East 565 650 34,000  Level FlightAware Transoceanic
04:04AM 51.0937 -23.2476 91° East 565 650 34,000  Level FlightAware Transoceanic
04:05AM 51.0897 -22.9974 92° East 565 650 34,000  Level FlightAware Transoceanic
04:06AM 51.0851 -22.7472 92° East 565 650 34,000  Level FlightAware Transoceanic
04:07AM 51.0801 -22.4971 92° East 565 650 34,000  Level FlightAware Transoceanic
04:08AM 51.0745 -22.2470 92° East 565 650 34,000  Level FlightAware Transoceanic
04:09AM 51.0683 -21.9970 92° East 565 650 34,000  Level FlightAware Transoceanic
04:10AM 51.0616 -21.7471 93° East 565 650 34,000  Level FlightAware Transoceanic
04:11AM 51.0544 -21.4973 93° East 565 650 34,000  Level FlightAware Transoceanic
04:12AM 51.0467 -21.2475 93° East 565 650 34,000  Level FlightAware Transoceanic
04:13AM 51.0384 -20.9978 93° East 565 650 34,000  Level FlightAware Transoceanic
04:14AM 51.0296 -20.7482 93° East 565 650 34,000  Level FlightAware Transoceanic
04:15AM 51.0203 -20.4987 94° East 565 650 34,000  Level FlightAware Transoceanic
04:16AM 51.0104 -20.2493 94° East 565 650 34,000  Level FlightAware Transoceanic
04:17AM 51.0010 -20.0230 94° East  Level FlightAware Approximate
04:18AM 50.9911 -19.7967 94° East  Level FlightAware Approximate
04:19AM 50.9802 -19.8220 100° East  Level FlightAware Approximate
04:20AM 50.9551 -19.5989 100° East  Level FlightAware Approximate
04:21AM 50.9294 -19.3761 100° East  Level FlightAware Approximate
04:22AM 50.9034 -19.1535 100° East  Level FlightAware Approximate
04:23AM 50.8769 -18.9312 101° East  Level FlightAware Approximate
04:24AM 50.8501 -18.7091 101° East  Level FlightAware Approximate
04:25AM 50.8228 -18.4872 101° East  Level FlightAware Approximate
04:26AM 50.7951 -18.2657 101° East  Level FlightAware Approximate
04:27AM 50.7669 -18.0444 101° East  Level FlightAware Approximate
04:28AM 50.7384 -17.8233 101° East  Level FlightAware Approximate
04:29AM 50.7094 -17.6026 102° East  Level FlightAware Approximate
04:30AM 50.6800 -17.3821 102° East  Level FlightAware Approximate
04:31AM 50.6502 -17.1618 102° East  Level FlightAware Approximate
04:32AM 50.6200 -16.9419 102° East  Level FlightAware Approximate
04:33AM 50.5894 -16.7223 102° East  Level FlightAware Approximate
04:34AM 50.5583 -16.5029 102° East  Level FlightAware Approximate
04:35AM 50.5268 -16.2838 103° East  Level FlightAware Approximate
04:36AM 50.4950 -16.0651 103° East  Level FlightAware Approximate
04:37AM 50.4627 -15.8466 103° East  Level FlightAware Approximate
04:38AM 50.4300 -15.6284 103° East  Level FlightAware Approximate
04:39AM 50.3969 -15.4105 103° East  Level FlightAware Approximate
04:40AM 50.3634 -15.1930 103° East  Level FlightAware Approximate
04:41AM 50.3295 -14.9757 104° East  Level FlightAware Approximate
04:42AM 50.2948 -14.7589 104° East  Level FlightAware Approximate
04:43AM 50.2597 -14.5424 104° East  Level FlightAware Approximate
04:44AM 50.2243 -14.3263 104° East  Level FlightAware Approximate
04:45AM 50.1884 -14.1104 104° East  Level FlightAware Approximate
04:46AM 50.1521 -13.8949 105° East  Level FlightAware Approximate
04:47AM 50.1155 -13.6797 105° East  Level FlightAware Approximate
04:48AM 50.0784 -13.4648 105° East  Level FlightAware Approximate
04:49AM 50.0409 -13.2503 105° East  Level FlightAware Approximate
04:50AM 50.0031 -13.0361 105° East  Level FlightAware Approximate
04:51AM 49.9648 -12.8223 105° East  Level FlightAware Approximate
04:52AM 49.9262 -12.6088 106° East  Level FlightAware Approximate
04:53AM 49.8871 -12.3956 106° East  Level FlightAware Approximate
04:54AM 49.8477 -12.1828 106° East  Level FlightAware Approximate
04:55AM 49.8079 -11.9703 106° East  Level FlightAware Approximate
04:56AM 49.7677 -11.7582 106° East  Level FlightAware Approximate
04:57AM 49.7271 -11.5464 106° East  Level FlightAware Approximate
04:58AM 49.6861 -11.3350 107° East  Level FlightAware Approximate
04:59AM 49.6447 -11.1239 107° East  Level FlightAware Approximate
05:00AM 49.6030 -10.9132 107° East  Level FlightAware Approximate
05:01AM 49.5609 -10.7029 107° East  Level FlightAware Approximate
05:02AM 49.5189 -10.4927 107° East  Level FlightAware Approximate
05:03AM 49.4776 -10.2823 107° East  Level FlightAware Approximate
05:04AM 49.4359 -10.0723 107° East  Level FlightAware Approximate
05:04AM 49.7124 -9.0018 107° East 492 566 35,000  Level FlightAware UK
05:05AM 49.3938 -9.8627 107° East  Level FlightAware Approximate
05:05AM 49.6853 -8.8957 112° Southeast 492 566 35,000  Level FlightAware UK
05:05AM 49.6579 -8.7897 112° Southeast 490 564 35,000  Level FlightAware UK
05:06AM 49.6306 -8.6837 112° Southeast 492 566 35,000  Level FlightAware UK
05:06AM 49.6030 -8.5781 112° Southeast 492 566 35,000  Level FlightAware UK
05:06AM 49.6030 -8.5410 112° Southeast 530 610 35,000  Level FlightAware
05:07AM 49.5753 -8.4727 112° Southeast 1 1 35,000  Level FlightAware UK
05:07AM 49.5610 -8.3830 112° Southeast 529 609 35,000  Level FlightAware
05:08AM 49.5280 -8.2590 112° Southeast 527 606 35,000  Level FlightAware
05:08AM 49.4921 -8.1585 112° Southeast 490 564 35,000  Level FlightAware UK
05:09AM 49.4740 -8.0580 112° Southeast 528 608 35,000 600 Level FlightAware
05:09AM 49.4360 -7.9494 112° Southeast 500 575 35,600 960 Climbing FlightAware UK
05:09AM 49.4340 -7.9090 112° Southeast 530 610 35,700 1,740 Climbing FlightAware
05:10AM 49.3970 -7.7710 112° Southeast 519 597 36,900 840 Climbing FlightAware
05:11AM 49.3526 -7.6414 112° Southeast 504 580 37,000 60 Climbing FlightAware UK
05:11AM 49.3380 -7.5580 112° Southeast 513 590 37,000  Level FlightAware
05:12AM 49.2985 -7.4440 112° Southeast 492 566 37,000  Level FlightAware UK
05:12AM 49.2980 -7.4120 112° Southeast 503 579 37,000  Level FlightAware
05:12AM 49.2715 -7.3466 112° Southeast 490 564 37,000  Level FlightAware UK
05:13AM 49.2610 -7.2790 112° Southeast 499 574 37,000  Level FlightAware
05:13AM 49.2150 -7.1530 119° Southeast 497 572 37,000  Level FlightAware
05:14AM 49.1712 -7.0711 119° Southeast 496 571 37,000  Level FlightAware UK
05:14AM 49.1700 -7.0340 119° Southeast 496 571 37,000  Level FlightAware
05:14AM 49.1368 -6.9804 119° Southeast 492 566 37,000  Level FlightAware UK
05:15AM 49.1180 -6.8970 119° Southeast 493 567 37,000  Level FlightAware
05:15AM 49.0690 -6.7700 120° Southeast 492 566 37,000  Level FlightAware
05:16AM 49.0334 -6.7101 120° Southeast 484 557 37,000  Level FlightAware UK
05:16AM 49.0180 -6.6380 120° Southeast 493 567 37,000  Level FlightAware
05:17AM 48.9690 -6.5090 120° Southeast 494 568 37,000  Level FlightAware
05:17AM 48.9296 -6.4422 120° Southeast 482 555 37,000  Level FlightAware UK
05:18AM 48.9220 -6.3890 120° Southeast 493 567 37,000  Level FlightAware
05:18AM 48.8730 -6.2630 121° Southeast 494 568 37,000  Level FlightAware
05:19AM 48.8270 -6.1450 121° Southeast 494 568 37,000  Level FlightAware
05:20AM 48.7770 -6.0150 120° Southeast 494 568 37,000  Level FlightAware
05:20AM 48.7411 -5.9600 120° Southeast 486 559 37,000  Level FlightAware UK
05:20AM 48.7270 -5.8890 120° Southeast 495 570 37,000  Level FlightAware
05:21AM 48.6760 -5.7600 121° Southeast 494 568 37,000  Level FlightAware
05:22AM 48.6270 -5.6380 121° Southeast 491 565 37,000  Level FlightAware
05:22AM 48.5924 -5.5876 121° Southeast 492 566 37,000  Level FlightAware UK
05:22AM 48.5800 -5.5200 121° Southeast 489 563 37,000  Level FlightAware
05:23AM 48.5433 -5.4651 121° Southeast 488 562 37,000  Level FlightAware UK
05:23AM 48.5300 -5.3950 121° Southeast 487 560 37,000  Level FlightAware
05:24AM 48.4800 -5.2710 121° Southeast 485 558 37,000  Level FlightAware
05:24AM 48.4388 -5.2072 121° Southeast 482 555 37,000  Level FlightAware UK
05:25AM 48.4290 -5.1450 121° Southeast 486 559 37,000  Level FlightAware
05:25AM 48.3700 -5.0010 122° Southeast 486 559 37,000  Level FlightAware
05:26AM 48.3240 -4.8870 121° Southeast 483 556 37,000  Level FlightAware
05:27AM 48.2763 -4.8120 121° Southeast 500 575 37,000  Level FlightAware UK
05:27AM 48.2660 -4.7470 121° Southeast 468 539 37,000  Level FlightAware
05:27AM 48.2290 -4.6974 121° Southeast 486 559 37,000  Level FlightAware UK
05:28AM 48.2190 -4.6310 121° Southeast 465 535 37,000  Level FlightAware
05:28AM 48.1730 -4.5200 122° Southeast 465 535 37,000  Level FlightAware
05:29AM 48.1270 -4.4070 121° Southeast 466 536 37,000  Level FlightAware
05:30AM 48.0620 -4.2450 121° Southeast 470 541 37,000  Level FlightAware
05:31AM 48.0140 -4.1270 121° Southeast 473 544 37,000  Level FlightAware
05:31AM 47.9710 -4.0210 121° Southeast 475 547 37,000  Level FlightAware
05:32AM 47.9220 -3.9010 121° Southeast 475 547 37,000  Level FlightAware
05:33AM 47.8760 -3.7850 121° Southeast 475 547 37,000  Level FlightAware
05:33AM 47.8260 -3.6640 122° Southeast 474 545 37,000  Level FlightAware
05:34AM 47.7760 -3.5430 122° Southeast 473 544 37,000  Level FlightAware
05:35AM 47.7370 -3.4480 121° Southeast 470 541 37,000  Level FlightAware
05:35AM 47.6820 -3.3150 122° Southeast 468 539 37,000  Level FlightAware
05:36AM 47.6400 -3.2110 121° Southeast 467 537 37,000 -120 Level FlightAware
05:37AM 47.5870 -3.0790 121° Southeast 463 533 36,900 -480 Descending FlightAware
05:38AM 47.5420 -2.9670 121° Southeast 458 527 36,300 -780 Descending FlightAware
05:38AM 47.5000 -2.8640 121° Southeast 448 516 35,900 -720 Descending FlightAware
05:39AM 47.4510 -2.7460 122° Southeast 440 506 35,300 -660 Descending FlightAware
05:40AM 47.4090 -2.6450 122° Southeast 433 498 35,000 -240 Descending FlightAware
05:40AM 47.3670 -2.5450 122° Southeast 434 499 35,000  Level FlightAware
05:41AM 47.3220 -2.4390 122° Southeast 431 496 35,000  Level FlightAware
05:42AM 47.2760 -2.3280 121° Southeast 429 494 35,000  Level FlightAware
05:43AM 47.2310 -2.2220 122° Southeast 426 490 35,000  Level FlightAware
05:43AM 47.1880 -2.1210 122° Southeast 424 488 35,000  Level FlightAware
05:44AM 47.1450 -2.0140 121° Southeast 423 487 35,000  Level FlightAware
05:45AM 47.1100 -1.9060 115° Southeast 421 484 35,000  Level FlightAware
05:45AM 47.0740 -1.7970 116° Southeast 420 483 35,000  Level FlightAware
05:46AM 47.0430 -1.7080 117° Southeast 417 480 35,000  Level FlightAware
05:47AM 47.0030 -1.5870 116° Southeast 415 478 35,000  Level FlightAware
05:47AM 46.9680 -1.4770 115° Southeast 412 474 35,000  Level FlightAware
05:48AM 46.9350 -1.3760 116° Southeast 407 468 35,000  Level FlightAware
05:49AM 46.8990 -1.2660 116° Southeast 404 465 35,000  Level FlightAware
05:49AM 46.8670 -1.1690 116° Southeast 402 463 35,000  Level FlightAware
05:50AM 46.8380 -1.0790 115° Southeast 402 463 35,000  Level FlightAware
05:51AM 46.7990 -0.9640 116° Southeast 403 464 35,000  Level FlightAware
05:52AM 46.7640 -0.8600 116° Southeast 401 461 35,000  Level FlightAware
05:52AM 46.7330 -0.7660 116° Southeast 400 460 35,000  Level FlightAware
05:53AM 46.6970 -0.6600 116° Southeast 402 463 35,000  Level FlightAware
05:54AM 46.6640 -0.5630 116° Southeast 405 466 35,000  Level FlightAware
05:55AM 46.6160 -0.4240 117° Southeast 406 467 35,000  Level FlightAware
05:55AM 46.5820 -0.3210 116° Southeast 408 470 35,000  Level FlightAware
05:56AM 46.5480 -0.2210 116° Southeast 409 471 35,000  Level FlightAware
05:57AM 46.5170 -0.1270 116° Southeast 407 468 35,000  Level FlightAware
05:58AM 46.4580 0.0530 115° Southeast 404 465 35,000  Level FlightAware
05:59AM 46.3910 0.2550 116° Southeast 412 474 35,000  Level FlightAware
06:00AM 46.3450 0.4140 113° Southeast 414 476 35,000  Level FlightAware
06:01AM 46.3070 0.5390 114° Southeast 413 475 35,000  Level FlightAware
06:02AM 46.2620 0.6890 113° Southeast 414 476 35,000  Level FlightAware
06:03AM 46.2350 0.7790 113° Southeast 415 478 35,000  Level FlightAware
06:04AM 46.1990 0.9420 108° East 418 481 35,000  Level FlightAware
06:04AM 46.1850 1.0320 103° East 419 482 35,000  Level FlightAware
06:05AM 46.1680 1.1530 101° East 419 482 35,000  Level FlightAware
06:06AM 46.1550 1.2410 102° East 419 482 35,000  Level FlightAware
06:06AM 46.1410 1.3300 103° East 419 482 35,000  Level FlightAware
06:07AM 46.1250 1.4440 101° East 419 482 35,000  Level FlightAware
06:08AM 46.1120 1.5270 103° East 419 482 35,000  Level FlightAware
06:09AM 45.9780 1.6940 139° Southeast 415 478 35,000  Level FlightAware
06:09AM 45.9450 1.7930 116° Southeast 419 482 35,000  Level FlightAware
06:10AM 45.9060 1.9110 115° Southeast 419 482 35,000  Level FlightAware
06:11AM 45.8600 2.0470 116° Southeast 419 482 35,000  Level FlightAware
06:12AM 45.8080 2.2010 116° Southeast 421 484 35,000  Level FlightAware
06:13AM 45.7760 2.2960 116° Southeast 421 484 35,000  Level FlightAware
06:13AM 45.7370 2.4100 116° Southeast 422 486 35,000  Level FlightAware
06:14AM 45.7000 2.5170 116° Southeast 422 486 35,000  Level FlightAware
06:15AM 45.6660 2.6150 116° Southeast 421 484 35,000  Level FlightAware
06:15AM 45.6290 2.7220 116° Southeast 422 486 35,000  Level FlightAware
06:16AM 45.5890 2.8390 116° Southeast 423 487 35,000  Level FlightAware
06:17AM 45.5280 3.0130 117° Southeast 424 488 35,000  Level FlightAware
06:18AM 45.4860 3.1330 116° Southeast 429 494 35,000  Level FlightAware
06:19AM 45.4790 3.1510 119° Southeast 429 494 35,000  Level FlightAware
06:19AM 45.4510 3.2330 116° Southeast 429 494 35,000  Level FlightAware
06:20AM 45.4000 3.3750 117° Southeast 35,000  Level FlightAware
06:21AM 45.3160 3.6110 117° Southeast 431 496 35,000  Level FlightAware
06:22AM 45.2770 3.7190 117° Southeast 432 497 35,000  Level FlightAware
06:23AM 45.2430 3.8100 118° Southeast 435 501 35,000  Level FlightAware
06:23AM 45.2060 3.8900 123° Southeast 433 498 35,000  Level FlightAware
06:24AM 45.1580 3.9930 123° Southeast 436 502 35,000  Level FlightAware
06:25AM 45.0740 4.1760 123° Southeast 438 504 35,000  Level FlightAware
06:26AM 45.0370 4.2560 123° Southeast 447 514 35,000  Level FlightAware
06:27AM 44.9800 4.3770 124° Southeast 449 517 35,000  Level FlightAware
06:28AM 44.9110 4.5270 123° Southeast 450 518 35,000  Level FlightAware
06:29AM 44.8430 4.6700 124° Southeast 449 517 35,000  Level FlightAware
06:29AM 44.7930 4.7770 123° Southeast 448 516 35,000  Level FlightAware
06:30AM 44.7400 4.8900 123° Southeast 448 516 35,000  Level FlightAware
06:31AM 44.6930 4.9880 124° Southeast 447 514 35,000  Level FlightAware
06:31AM 44.6470 5.0860 123° Southeast 449 517 35,000  Level FlightAware
06:32AM 44.5930 5.1980 124° Southeast 451 519 35,000  Level FlightAware
06:33AM 44.5520 5.2820 124° Southeast 455 524 35,000  Level FlightAware
06:33AM 44.5000 5.3910 124° Southeast 459 528 35,000  Level FlightAware
06:34AM 44.4460 5.5030 124° Southeast 459 528 35,000  Level FlightAware
06:35AM 44.3990 5.6010 124° Southeast 461 531 35,000  Level FlightAware
06:36AM 44.3500 5.7000 125° Southeast 463 533 35,000  Level FlightAware
06:36AM 44.2970 5.8090 124° Southeast 468 539 35,000  Level FlightAware
06:37AM 44.2410 5.9240 124° Southeast 465 535 35,000  Level FlightAware
06:38AM 44.1970 6.0130 125° Southeast 464 534 35,000  Level FlightAware
06:38AM 44.1460 6.1260 122° Southeast 471 542 35,000  Level FlightAware
06:39AM 44.0940 6.2450 121° Southeast 471 542 35,000  Level FlightAware
06:40AM 44.0550 6.3330 122° Southeast 469 540 35,000  Level FlightAware
06:40AM 44.0040 6.4490 121° Southeast 469 540 35,000  Level FlightAware
06:41AM 43.9520 6.5620 123° Southeast 470 541 35,000  Level FlightAware
06:42AM 43.9050 6.6660 122° Southeast 468 539 35,000  Level FlightAware
06:43AM 43.8590 6.7680 122° Southeast 474 545 35,000  Level FlightAware
06:43AM 43.8130 6.8710 122° Southeast 477 549 35,000  Level FlightAware
06:44AM 43.7580 6.9920 122° Southeast 481 554 35,000  Level FlightAware
06:45AM 43.7040 7.1090 123° Southeast 483 556 35,000  Level FlightAware
06:45AM 43.6570 7.2140 122° Southeast 484 557 35,000 300 Level FlightAware
06:46AM 43.6060 7.3210 123° Southeast 487 560 35,500 1,020 Climbing FlightAware
06:47AM 43.5600 7.4220 122° Southeast 486 559 36,400 1,080 Climbing FlightAware
06:47AM 43.5030 7.5430 123° Southeast 487 560 37,000 360 Climbing FlightAware
06:48AM 43.4490 7.6570 123° Southeast 486 559 37,000  Level FlightAware
06:49AM 43.3970 7.7710 122° Southeast 483 556 37,000  Level FlightAware
06:50AM 43.3460 7.8820 122° Southeast 481 554 37,000  Level FlightAware
06:51AM 43.2830 8.0170 123° Southeast 480 552 37,000  Level FlightAware
06:52AM 43.2000 8.1980 122° Southeast 478 550 37,000  Level FlightAware
06:52AM 43.1460 8.3160 122° Southeast 478 550 37,000  Level FlightAware
06:53AM 43.0940 8.4300 122° Southeast 478 550 37,000  Level FlightAware
06:54AM 43.0480 8.5340 121° Southeast 477 549 37,000  Level FlightAware
06:55AM 43.0010 8.6400 121° Southeast 476 548 37,000  Level FlightAware
06:55AM 42.9430 8.7700 121° Southeast 474 545 37,000  Level FlightAware
06:56AM 42.8970 8.8720 122° Southeast 470 541 37,000  Level FlightAware
06:57AM 42.8460 8.9830 122° Southeast 468 539 37,000  Level FlightAware
06:57AM 42.7990 9.0820 123° Southeast 467 537 37,000  Level FlightAware
06:58AM 42.7450 9.1960 123° Southeast 467 537 37,000  Level FlightAware
06:59AM 42.7060 9.3020 117° Southeast 470 541 37,000  Level FlightAware
07:00AM 42.6670 9.4160 115° Southeast 471 542 37,000  Level FlightAware
07:00AM 42.6320 9.5240 114° Southeast 474 545 37,000  Level FlightAware
07:01AM 42.6000 9.6330 112° Southeast 478 550 37,000  Level FlightAware
07:02AM 42.5610 9.7650 112° Southeast 479 551 37,000  Level FlightAware
07:02AM 42.5310 9.8650 112° Southeast 480 552 37,000  Level FlightAware
07:03AM 42.4890 10.0020 113° Southeast 482 555 37,000  Level FlightAware
07:04AM 42.4550 10.1140 112° Southeast 482 555 37,000  Level FlightAware
07:05AM 42.4200 10.2290 112° Southeast 482 555 37,000  Level FlightAware
07:05AM 42.3800 10.3590 113° Southeast 479 551 37,000  Level FlightAware
07:06AM 42.3370 10.4970 113° Southeast 478 550 37,000  Level FlightAware
07:07AM 42.3030 10.6080 112° Southeast 479 551 37,000  Level FlightAware
07:07AM 42.2680 10.7200 113° Southeast 480 552 37,000  Level FlightAware
07:08AM 42.2280 10.8450 113° Southeast 485 558 37,000  Level FlightAware
07:09AM 42.1930 10.9570 113° Southeast 486 559 37,000  Level FlightAware
07:10AM 42.1350 11.0650 126° Southeast 475 547 37,000  Level FlightAware
07:10AM 42.0700 11.1700 130° Southeast 477 549 37,000  Level FlightAware
07:11AM 42.0450 11.2130 128° Southeast 484 557 37,000  Level FlightAware
07:12AM 41.9460 11.3870 127° Southeast 486 559 37,000  Level FlightAware
07:13AM 41.8750 11.4990 130° Southeast 480 552 37,000  Level FlightAware
07:13AM 41.8250 11.5790 130° Southeast 480 552 37,000  Level FlightAware
07:14AM 41.7590 11.6830 130° Southeast 481 554 37,000  Level FlightAware
07:15AM 41.7010 11.7740 130° Southeast 481 554 37,000  Level FlightAware
07:15AM 41.6360 11.8780 130° Southeast 482 555 37,000  Level FlightAware
07:16AM 41.5700 11.9820 130° Southeast 483 556 37,000  Level FlightAware
07:17AM 41.5120 12.0730 130° Southeast 483 556 37,000  Level FlightAware
07:18AM 41.4520 12.1650 131° Southeast 485 558 37,000  Level FlightAware
07:18AM 41.3860 12.2680 130° Southeast 491 565 37,000  Level FlightAware
07:19AM 41.3120 12.3840 130° Southeast 492 566 37,000  Level FlightAware
07:20AM 41.2680 12.4550 129° Southeast 492 566 37,000  Level FlightAware
07:21AM 41.2180 12.5340 130° Southeast 492 566 37,000  Level FlightAware
07:21AM 41.1160 12.6830 132° Southeast 496 571 37,000  Level FlightAware
07:22AM 41.0520 12.7810 131° Southeast 497 572 37,000  Level FlightAware
07:23AM 40.9920 12.8720 131° Southeast 498 573 37,000  Level FlightAware
07:23AM 40.9460 12.9430 131° Southeast 498 573 37,000  Level FlightAware
07:24AM 40.8690 13.0910 124° Southeast 502 578 37,000  Level FlightAware
07:25AM 40.8240 13.1940 120° Southeast 503 579 37,000  Level FlightAware
07:26AM 40.7750 13.3080 120° Southeast 504 580 37,000  Level FlightAware
07:26AM 40.7260 13.4200 120° Southeast 505 581 37,000  Level FlightAware
07:27AM 40.6840 13.5150 120° Southeast 505 581 37,000  Level FlightAware
07:28AM 40.6310 13.6360 120° Southeast 504 580 37,000  Level FlightAware
07:28AM 40.5770 13.7570 120° Southeast 504 580 37,000  Level FlightAware
07:29AM 40.5280 13.8690 120° Southeast 504 580 37,000  Level FlightAware
07:30AM 40.4820 13.9700 121° Southeast 502 578 37,000  Level FlightAware
07:30AM 40.4310 14.0840 120° Southeast 503 579 37,000  Level FlightAware
07:31AM 40.3780 14.2010 121° Southeast 503 579 37,000  Level FlightAware
07:32AM 40.3350 14.2950 121° Southeast 503 579 37,000  Level FlightAware
07:32AM 40.2810 14.4140 121° Southeast 503 579 37,000  Level FlightAware
07:33AM 40.2280 14.5270 122° Southeast 504 580 37,000  Level FlightAware
07:34AM 40.1870 14.6170 121° Southeast 505 581 37,000  Level FlightAware
07:35AM 40.1270 14.7450 121° Southeast 506 582 37,000  Level FlightAware
07:36AM 40.0490 14.9150 121° Southeast 506 582 37,000  Level FlightAware
07:37AM 39.9780 15.0640 122° Southeast 507 583 37,000  Level FlightAware
07:37AM 39.9210 15.1860 121° Southeast 513 590 37,000  Level FlightAware
07:38AM 39.8750 15.2830 122° Southeast 514 592 37,000  Level FlightAware
07:39AM 39.8130 15.4140 122° Southeast 517 595 37,000  Level FlightAware
07:39AM 39.7640 15.5180 121° Southeast 517 595 37,000  Level FlightAware
07:41AM 39.7190 15.6140 121° Southeast 518 596 37,000  Level FlightAware
07:42AM 39.5740 15.9160 122° Southeast 519 597 37,000  Level FlightAware
07:43AM 39.5210 16.0260 122° Southeast 519 597 37,000  Level FlightAware
07:43AM 39.4670 16.1370 122° Southeast 519 597 37,000  Level FlightAware
07:44AM 39.4160 16.2430 122° Southeast 519 597 37,000  Level FlightAware
07:45AM 39.3630 16.3500 123° Southeast 519 597 37,000  Level FlightAware
07:45AM 39.3210 16.4360 122° Southeast 518 596 37,000  Level FlightAware
07:46AM 39.2500 16.5810 122° Southeast 517 595 37,000  Level FlightAware
07:47AM 39.1970 16.6880 123° Southeast 516 594 37,000  Level FlightAware
07:48AM 39.1450 16.7940 122° Southeast 515 593 37,000  Level FlightAware
07:48AM 39.0930 16.8990 123° Southeast 513 590 37,000  Level FlightAware
07:49AM 39.0230 17.0410 122° Southeast 512 589 37,000  Level FlightAware
07:51AM 38.9480 17.2720 113° Southeast 514 592 37,000  Level FlightAware
07:51AM 38.9250 17.3670 107° East 514 592 37,000  Level FlightAware
07:52AM 38.8960 17.4900 107° East 514 592 37,000  Level FlightAware
07:53AM 38.8610 17.6360 107° East 514 592 37,000  Level FlightAware
07:54AM 38.8210 17.7970 108° East 512 589 37,000  Level FlightAware
07:54AM 38.7960 17.8970 108° East 514 592 37,000  Level FlightAware
07:55AM 38.7480 18.0870 108° East 515 593 37,000  Level FlightAware
07:56AM 38.7240 18.1860 107° East 515 593 37,000  Level FlightAware
07:57AM 38.6830 18.3470 108° East 517 595 37,000  Level FlightAware
07:57AM 38.6620 18.4310 108° East 516 594 37,000  Level FlightAware
07:58AM 38.6280 18.5650 108° East 516 594 37,000  Level FlightAware
07:59AM 38.5990 18.6790 108° East 516 594 37,000  Level FlightAware
07:59AM 38.5740 18.7770 108° East 516 594 37,000  Level FlightAware
08:00AM 38.5290 18.9460 109° East 516 594 37,000  Level FlightAware
08:01AM 38.4810 19.1050 111° Southeast 507 583 37,000 -120 Level FlightAware
08:02AM 38.4190 19.2120 126° Southeast 513 590 36,900  Descending FlightAware
08:03AM 38.3940 19.3290 105° East 519 597 37,000  Climbing FlightAware
08:03AM 38.3530 19.4710 110° East 518 596 36,900 -120 Descending FlightAware
08:04AM 38.3200 19.5780 111° Southeast 519 597 36,900  Level FlightAware
08:05AM 38.2870 19.6910 110° East 520 598 36,900  Level FlightAware
08:06AM 38.2520 19.8120 110° East 521 600 36,900  Level FlightAware
08:06AM 38.2190 19.9210 111° Southeast 522 601 36,900  Level FlightAware
08:07AM 38.1740 20.0660 112° Southeast 522 601 36,900  Level FlightAware
08:08AM 38.1400 20.1810 111° Southeast 522 601 36,900  Level FlightAware
08:09AM 38.1040 20.2980 111° Southeast 522 601 36,900  Level FlightAware
08:09AM 38.0780 20.3850 111° Southeast 522 601 36,900  Level FlightAware
08:10AM 38.0330 20.5340 111° Southeast 522 601 36,900  Level FlightAware
08:11AM 37.9930 20.6670 111° Southeast 522 601 36,900  Level FlightAware
08:12AM 37.9050 20.9420 112° Southeast 526 605 36,900  Level FlightAware
08:13AM 37.8800 21.0250 111° Southeast 526 605 36,900  Level FlightAware
08:13AM 37.8430 21.1450 111° Southeast 526 605 36,900  Level FlightAware
08:14AM 37.8090 21.2570 111° Southeast 526 605 36,900  Level FlightAware
08:15AM 37.7820 21.3480 111° Southeast 526 605 36,900  Level FlightAware
08:15AM 37.7530 21.4400 112° Southeast 526 605 36,900  Level FlightAware
08:16AM 37.7170 21.5600 111° Southeast 526 605 36,900  Level FlightAware
08:17AM 37.6900 21.6480 111° Southeast 526 605 36,900  Level FlightAware
08:18AM 37.6550 21.7650 111° Southeast 526 605 36,900  Level FlightAware
08:18AM 37.6270 21.8550 111° Southeast 526 605 36,900  Level FlightAware
08:19AM 37.5860 21.9920 111° Southeast 526 605 36,900  Level FlightAware
08:20AM 37.4330 22.4040 115° Southeast 539 620 36,900  Level FlightAware
08:21AM 37.4010 22.5030 112° Southeast 539 620 36,900  Level FlightAware
08:22AM 37.3620 22.6240 112° Southeast 539 620 36,900  Level FlightAware
08:23AM 37.3050 22.7880 114° Southeast 545 627 36,900  Level FlightAware
08:23AM 37.2610 22.9180 113° Southeast 545 627 36,900  Level FlightAware
08:24AM 37.2190 23.0430 113° Southeast 546 628 36,900  Level FlightAware
08:25AM 37.1820 23.1500 113° Southeast 547 629 36,900  Level FlightAware
08:26AM 37.1220 23.3270 113° Southeast 547 629 36,900  Level FlightAware
08:26AM 37.0790 23.4540 113° Southeast 547 629 36,900  Level FlightAware
08:27AM 37.0390 23.5710 113° Southeast 547 629 36,900  Level FlightAware
08:28AM 36.9980 23.6900 113° Southeast 548 631 36,900  Level FlightAware
08:28AM 36.9540 23.8170 113° Southeast 549 632 36,900  Level FlightAware
08:29AM 36.9120 23.9400 113° Southeast 549 632 36,900  Level FlightAware
08:30AM 36.8740 24.0470 114° Southeast 548 631 36,900  Level FlightAware
08:31AM 36.8250 24.1880 113° Southeast 550 633 36,900  Level FlightAware
08:31AM 36.7820 24.3090 114° Southeast 550 633 36,900  Level FlightAware
08:32AM 36.7470 24.4080 114° Southeast 551 634 36,900  Level FlightAware
08:33AM 36.6960 24.5540 114° Southeast 552 635 36,900  Level FlightAware
08:33AM 36.6540 24.6720 114° Southeast 553 636 36,900  Level FlightAware
08:34AM 36.6080 24.8000 114° Southeast 553 636 36,900  Level FlightAware
08:35AM 36.5660 24.9170 114° Southeast 554 638 36,900  Level FlightAware
08:35AM 36.5210 25.0430 114° Southeast 554 638 36,900  Level FlightAware
08:36AM 36.4800 25.1600 114° Southeast 555 639 36,900  Level FlightAware
08:37AM 36.4380 25.2760 114° Southeast 555 639 36,900  Level FlightAware
08:38AM 36.3920 25.4040 114° Southeast 555 639 36,900  Level FlightAware
08:38AM 36.3470 25.5270 114° Southeast 553 636 36,900  Level FlightAware
08:39AM 36.3070 25.6370 114° Southeast 551 634 36,900  Level FlightAware
08:40AM 36.2650 25.7530 114° Southeast 550 633 36,900  Level FlightAware
08:41AM 36.2040 25.9160 115° Southeast 549 632 36,900  Level FlightAware
08:41AM 36.1550 26.0480 115° Southeast 549 632 36,900  Level FlightAware
08:42AM 36.1100 26.1690 115° Southeast 548 631 36,900  Level FlightAware
08:43AM 36.0660 26.2860 115° Southeast 547 629 36,900  Level FlightAware
08:43AM 36.0210 26.4060 115° Southeast 547 629 36,900  Level FlightAware
08:44AM 35.9760 26.5250 115° Southeast 548 631 36,900  Level FlightAware
08:45AM 35.9240 26.6620 115° Southeast 548 631 36,900  Level FlightAware
08:47AM 35.8680 26.8080 115° Southeast 547 629 36,900  Level FlightAware
08:47AM 35.7720 27.0570 115° Southeast 547 629 36,900  Level FlightAware
08:48AM 35.7310 27.1630 115° Southeast 548 631 36,900  Level FlightAware
08:49AM 35.6900 27.2690 115° Southeast 548 631 36,900  Level FlightAware
08:49AM 35.6530 27.3680 115° Southeast 548 631 36,900  Level FlightAware
08:50AM 35.6180 27.4590 115° Southeast 548 631 36,900  Level FlightAware
08:51AM 35.5790 27.5620 115° Southeast 548 631 36,900  Level FlightAware
08:52AM 35.5350 27.6770 115° Southeast 548 631 36,900  Level FlightAware
08:52AM 35.5030 27.7640 114° Southeast 548 631 36,900  Level FlightAware
08:53AM 35.4020 28.0030 117° Southeast 545 627 36,900  Level FlightAware
08:54AM 35.3470 28.1430 116° Southeast 546 628 36,900  Level FlightAware
08:54AM 35.3040 28.2510 116° Southeast 546 628 36,900  Level FlightAware
08:55AM 35.2630 28.3520 116° Southeast 545 627 36,900  Level FlightAware
08:56AM 35.2070 28.4900 116° Southeast 549 632 36,900  Level FlightAware
08:56AM 35.1640 28.5990 116° Southeast 553 636 36,900  Level FlightAware
08:57AM 35.1190 28.7100 116° Southeast 551 634 36,900  Level FlightAware
08:58AM 35.0750 28.8200 116° Southeast 550 633 36,900  Level FlightAware
08:59AM 35.0190 28.9560 117° Southeast 548 631 36,900  Level FlightAware
08:59AM 34.9740 29.0670 116° Southeast 548 631 36,900  Level FlightAware
09:00AM 34.9380 29.1540 117° Southeast 547 629 36,900  Level FlightAware
09:01AM 34.8850 29.2820 117° Southeast 546 628 36,900  Level FlightAware
09:01AM 34.8630 29.3370 116° Southeast 36,900  Level FlightAware
09:02AM 34.8330 29.4090 117° Southeast 546 628 36,900  Level FlightAware
09:02AM 34.7680 29.5650 117° Southeast 543 625 36,900  Level FlightAware
09:03AM 34.7200 29.6780 117° Southeast 543 625 36,900  Level FlightAware
09:04AM 34.6750 29.7860 117° Southeast 543 625 36,900  Level FlightAware
09:04AM 34.6350 29.8800 117° Southeast 543 625 36,900  Level FlightAware
09:05AM 34.5940 29.9800 116° Southeast 543 625 36,900  Level FlightAware
09:05AM 34.5720 30.0360 115° Southeast 543 625 36,900  Level FlightAware
09:06AM 34.5070 30.1640 122° Southeast 546 628 36,900  Level FlightAware
09:07AM 34.4500 30.2820 120° Southeast 546 628 36,900  Level FlightAware
09:07AM 34.3920 30.4000 121° Southeast 547 629 36,900  Level FlightAware
09:08AM 34.3400 30.5080 120° Southeast 548 631 36,900  Level FlightAware
09:09AM 34.2880 30.6160 120° Southeast 549 632 36,900  Level FlightAware
09:10AM 34.2290 30.7380 120° Southeast 550 633 36,900  Level FlightAware
09:10AM 34.1770 30.8440 121° Southeast 551 634 36,900  Level FlightAware
09:11AM 34.1050 30.9920 120° Southeast 549 632 36,900  Level FlightAware
09:12AM 34.0530 31.1000 120° Southeast 550 633 36,900  Level FlightAware
09:13AM 33.9970 31.2150 120° Southeast 552 635 36,900  Level FlightAware
09:13AM 33.9450 31.3210 121° Southeast 547 629 36,900  Level FlightAware
09:14AM 33.9030 31.4060 121° Southeast 541 623 36,900  Level FlightAware
09:14AM 33.8520 31.5100 121° Southeast 537 618 36,900  Level FlightAware
09:15AM 33.7810 31.6520 121° Southeast 536 617 36,900  Level FlightAware
09:16AM 33.7110 31.7920 121° Southeast 534 615 36,900  Level FlightAware
09:17AM 33.6610 31.8930 121° Southeast 533 613 36,900  Level FlightAware
09:18AM 33.6020 32.0120 121° Southeast 532 612 36,900  Level FlightAware
09:18AM 33.5700 32.0750 121° Southeast 533 613 36,900  Level FlightAware
09:19AM 33.5160 32.1830 121° Southeast 533 613 36,900  Level FlightAware
09:19AM 33.4670 32.2810 121° Southeast 534 615 36,900  Level FlightAware
09:20AM 33.4050 32.4020 122° Southeast 533 613 36,900  Level FlightAware
09:21AM 33.3510 32.5100 121° Southeast 534 615 36,900 -960 Level FlightAware
09:22AM 33.2930 32.6230 122° Southeast 544 626 35,500 -1,800 Descending FlightAware
09:23AM 33.2280 32.7490 122° Southeast 534 615 34,100 -2,100 Descending FlightAware
09:23AM 33.1690 32.8670 121° Southeast 531 611 32,400 -2,340 Descending FlightAware
09:24AM 33.1220 32.9580 122° Southeast 535 616 30,900 -1,560 Descending FlightAware
09:25AM 33.0750 33.0510 121° Southeast 530 610 30,300 -1,500 Descending FlightAware
09:25AM 33.0090 33.1770 122° Southeast 547 629 28,900 -1,140 Descending FlightAware
09:26AM 32.9610 33.2670 122° Southeast 517 595 28,900 -960 Level FlightAware
09:27AM 32.9030 33.3800 121° Southeast 483 556 27,600 -2,040 Descending FlightAware
09:27AM 32.8510 33.4800 122° Southeast 444 511 25,800 -2,220 Descending FlightAware
09:28AM 32.8070 33.5620 123° Southeast 409 471 24,400 -2,040 Descending FlightAware
09:29AM 32.7710 33.6330 121° Southeast 375 432 23,100 -1,920 Descending FlightAware
09:30AM 32.7320 33.7070 122° Southeast 355 409 21,800 -1,680 Descending FlightAware
09:31AM 32.6950 33.7770 122° Southeast 343 395 20,000 -2,580 Descending FlightAware
09:31AM 32.6390 33.8860 121° Southeast 329 379 17,100 -2,880 Descending FlightAware
09:32AM 32.6050 33.9460 124° Southeast 321 369 16,000 -1,740 Descending FlightAware
09:33AM 32.5620 34.0050 131° Southeast 328 377 14,700 -1,440 Descending FlightAware
09:34AM 32.5240 34.0600 129° Southeast 325 374 13,700 -1,440 Descending FlightAware
09:34AM 32.4730 34.1360 128° Southeast 319 367 12,500 -1,500 Descending FlightAware
09:35AM 32.4200 34.2130 129° Southeast 310 357 11,200 -1,380 Descending FlightAware
09:36AM 32.3860 34.2610 130° Southeast 305 351 10,400 -1,200 Descending FlightAware
09:37AM 32.3550 34.3040 130° Southeast 296 341 9,800 -900 Descending FlightAware
09:37AM 32.3330 34.3360 129° Southeast 286 329 9,500 -1,080 Descending FlightAware
09:38AM 32.3060 34.3740 130° Southeast 281 323 8,800 -720 Descending FlightAware
09:38AM 32.2860 34.4040 128° Southeast 281 323 8,800  Level FlightAware
09:38AM 32.2680 34.4290 130° Southeast 281 323 8,800  Level FlightAware
09:39AM 32.2510 34.4530 130° Southeast 281 323 8,800  Level FlightAware
09:39AM 32.2350 34.4780 127° Southeast 281 323 8,800 -1,380 Level FlightAware
09:41AM 32.1540 34.6250 123° Southeast 5,200 -1,620 Descending FlightAware
09:41AM 32.1300 34.6700 122° Southeast 279 321 5,200  Level FlightAware
09:42AM 32.1150 34.6980 122° Southeast 278 320 5,200  Level FlightAware
09:42AM 32.0920 34.7370 125° Southeast 277 319 5,200  Level FlightAware
09:43AM 32.0760 34.7670 122° Southeast 275 316 5,200  Level FlightAware
09:43AM 32.0640 34.7870 125° Southeast 256 295 5,200  Level FlightAware
09:44AM 32.0440 34.8180 127° Southeast 245 282 5,200 -360 Level FlightAware
09:44AM 32.0230 34.8410 137° Southeast 226 260 4,900 -600 Descending FlightAware
09:44AM 32.0010 34.8660 136° Southeast 209 241 4,700 -660 Descending FlightAware
09:45AM 31.9850 34.8830 138° Southeast 213 245 4,300 -840 Descending FlightAware
09:45AM 31.9820 34.8860 140° Southeast 214 246 4,200 -780 Descending FlightAware
09:46AM 31.9620 34.9040 143° Southeast 206 237 3,800 -1,320 Descending FlightAware
09:46AM 31.9520 34.9270 117° Southeast 203 234 3,200 -1,500 Descending FlightAware
09:46AM 31.9560 34.9630 83° East 178 205 2,700 -840 Descending FlightAware
09:47AM 31.9660 34.9980 71° East 171 197 2,200 -720 Descending FlightAware
09:50AM 32.0095 34.8769 293° West  Level Estimated
09:51AM 32.0095 34.8769 270° West  Level Estimated